Latest Weather Observations for Hunters Hill

IDV60801

Issued at 8:02 am EST Thursday 28 May 2015 (issued every 30 minutes, with the page automatically refreshed every 10 minutes)

About weather observations | Map of weather stations | Latest weather observations for VIC | Other Formats
Station Details ID: 082139 Name: HUNTERS HILL Lat: -36.21 Lon: 147.54 Height: 981.0 m
Data from the previous 72 hours. | See also: Recent months at Hunters Hill
Date/Time
EST
Temp
°C
App
Temp
°C
Dew
Point
Rel
Hum
%
Delta-T
°C
Wind Press
QNH
hPa
Press
MSL
hPa
Rain
since 9 am
mm
Dir
 
Spd
km/h
Gust
km/h
Spd
kts
Gust
kts
28/08:00am 7.7 5.8 7.7 100 0.0 N 7 17 4 9 - - 3.2
28/07:30am 7.4 5.5 7.4 100 0.0 N 7 13 4 7 - - 3.2
28/07:00am 7.3 5.5 7.3 100 0.0 N 6 9 3 5 - - 3.2
28/06:30am 7.2 4.8 7.2 100 0.0 NNE 9 15 5 8 - - 1.8
28/06:00am 7.3 5.3 7.3 100 0.0 NNE 7 13 4 7 - - 1.8
28/05:30am 7.2 5.2 7.2 100 0.0 NNE 7 13 4 7 - - 1.8
28/05:00am 7.0 5.2 7.0 100 0.0 NNE 6 11 3 6 - - 1.8
28/04:30am 7.1 5.1 7.1 100 0.0 NNE 7 13 4 7 - - 1.8
28/04:00am 7.0 5.2 7.0 100 0.0 N 6 11 3 6 - - 1.8
28/03:30am 7.0 5.0 7.0 100 0.0 NNE 7 17 4 9 - - 1.8
28/03:00am 7.0 5.0 7.0 100 0.0 NNE 7 15 4 8 - - 1.8
28/02:30am 7.0 5.0 7.0 100 0.0 E 7 11 4 6 - - 1.8
28/02:00am 6.9 5.4 6.9 100 0.0 SE 4 7 2 4 - - 1.8
28/01:30am 7.1 5.3 7.1 100 0.0 SE 6 11 3 6 - - 1.8
28/01:00am 7.1 5.3 7.1 100 0.0 S 6 9 3 5 - - 1.8
28/12:30am 7.2 5.4 7.2 100 0.0 S 6 9 3 5 - - 1.8
28/12:00am 7.0 5.5 7.0 100 0.0 S 4 11 2 6 - - 1.8
 
Date/Time
EST
Temp
°C
App
Temp
°C
Dew
Point
Rel
Hum
%
Delta-T
°C
Wind Press
QNH
hPa
Press
MSL
hPa
Rain
since 9 am
mm
Dir
 
Spd
km/h
Gust
km/h
Spd
kts
Gust
kts
27/11:30pm 6.9 5.8 6.9 100 0.0 S 2 7 1 4 - - 1.8
27/11:00pm 6.5 5.3 6.5 100 0.0 S 2 7 1 4 - - 1.8
27/10:30pm 6.2 4.9 6.2 100 0.0 S 2 2 1 1 - - 1.8
27/10:00pm 5.9 4.6 5.9 100 0.0 S 2 6 1 3 - - 1.6
27/09:30pm 6.0 4.7 6.0 100 0.0 S 2 4 1 2 - - 1.6
27/09:00pm 6.4 5.2 6.4 100 0.0 S 2 4 1 2 - - 1.6
27/08:30pm 6.8 5.3 6.8 100 0.0 S 4 9 2 5 - - 1.2
27/08:00pm 6.5 4.9 6.5 100 0.0 S 4 6 2 3 - - 1.2
27/07:30pm 5.8 4.8 5.8 100 0.0 CALM 0 4 0 2 - - 1.2
27/07:00pm 6.1 4.4 6.1 100 0.0 S 4 7 2 4 - - 1.2
27/06:30pm 5.8 4.8 5.8 100 0.0 CALM 0 2 0 1 - - 1.2
27/06:00pm 5.5 4.5 5.4 99 0.0 CALM 0 4 0 2 - - 1.2
27/05:30pm 5.4 4.0 5.3 99 0.0 S 2 4 1 2 - - 1.2
27/05:00pm 5.5 4.5 5.4 99 0.0 CALM 0 4 0 2 - - 1.2
27/04:30pm 5.7 4.3 5.6 99 0.0 S 2 4 1 2 - - 1.2
27/04:00pm 5.7 4.3 5.6 99 0.0 S 2 4 1 2 - - 1.2
27/03:30pm 5.9 4.9 5.8 99 0.0 CALM 0 0 0 0 - - 1.2
27/03:00pm 5.9 4.9 5.8 99 0.0 CALM 0 0 0 0 - - 1.2
27/02:30pm 6.0 4.7 5.9 99 0.0 S 2 7 1 4 - - 1.2
27/02:00pm 6.3 5.0 5.9 97 0.2 S 2 4 1 2 - - 1.2
27/01:30pm 5.7 4.6 5.1 96 0.3 CALM 0 6 0 3 - - 1.2
27/01:00pm 6.0 4.9 5.3 95 0.3 CALM 0 4 0 2 - - 1.2
27/12:30pm 6.0 4.7 5.9 99 0.0 S 2 4 1 2 - - 1.2
27/12:00pm 5.5 4.1 5.4 99 0.0 S 2 7 1 4 - - 1.2
27/11:30am 4.8 3.2 4.7 99 0.0 S 2 6 1 3 - - 1.2
27/11:00am 4.9 3.4 4.8 99 0.0 S 2 4 1 2 - - 1.2
27/10:30am 5.2 3.7 5.1 99 0.0 S 2 4 1 2 - - 1.2
27/10:00am 5.6 3.7 3.1 84 1.1 S 2 4 1 2 - - 0.0
27/09:30am 5.5 3.2 2.8 83 1.2 S 4 6 2 3 - - 0.0
27/09:00am 5.5 3.7 3.2 85 1.0 S 2 6 1 3 - - 0.0
27/08:30am 5.8 3.6 3.5 85 1.0 S 4 6 2 3 - - 0.0
27/08:00am 4.4 2.8 2.3 86 0.9 CALM 0 4 0 2 - - 0.0
27/07:30am 5.2 3.1 4.0 92 0.5 S 4 7 2 4 - - 0.0
27/07:00am 5.0 2.9 4.0 93 0.4 S 4 6 2 3 - - 0.0
27/06:30am 4.6 2.3 2.6 87 0.9 S 4 4 2 2 - - 0.0
27/06:00am 4.1 2.0 2.0 86 0.9 S 2 2 1 1 - - 0.0
27/05:30am 4.5 2.5 2.4 86 0.9 S 2 4 1 2 - - 0.0
27/05:00am 4.5 2.9 2.5 87 0.9 CALM 0 0 0 0 - - 0.0
27/04:30am 4.5 2.5 2.5 87 0.9 S 2 2 1 1 - - 0.0
27/04:00am 4.4 2.0 2.3 86 0.9 S 4 6 2 3 - - 0.0
27/03:30am 4.5 2.6 3.0 90 0.7 S 2 4 1 2 - - 0.0
27/03:00am 5.1 3.7 3.4 89 0.8 CALM 0 2 0 1 - - 0.0
27/02:30am 5.4 4.2 4.5 94 0.4 CALM 0 2 0 1 - - 0.0
27/02:00am 5.7 4.5 4.7 93 0.5 CALM 0 0 0 0 - - 0.0
27/01:30am 5.8 4.6 4.6 92 0.5 CALM 0 4 0 2 - - 0.0
27/01:00am 5.8 4.2 4.3 90 0.7 S 2 4 1 2 - - 0.0
27/12:30am 5.9 4.2 4.2 89 0.8 S 2 4 1 2 - - 0.0
27/12:00am 6.0 4.8 4.5 90 0.7 CALM 0 0 0 0 - - 0.0
 
Date/Time
EST
Temp
°C
App
Temp
°C
Dew
Point
Rel
Hum
%
Delta-T
°C
Wind Press
QNH
hPa
Press
MSL
hPa
Rain
since 9 am
mm
Dir
 
Spd
km/h
Gust
km/h
Spd
kts
Gust
kts
26/11:30pm 6.1 4.3 5.4 95 0.3 S 4 6 2 3 - - 0.0
26/11:00pm 6.1 4.2 5.1 93 0.5 S 4 6 2 3 - - 0.0
26/10:30pm 6.3 4.0 4.6 89 0.8 S 6 7 3 4 - - 0.0
26/10:00pm 5.9 4.7 4.5 91 0.6 CALM 0 0 0 0 - - 0.0
26/09:30pm 6.0 4.7 4.0 87 0.9 CALM 0 0 0 0 - - 0.0
26/09:00pm 6.5 5.2 4.2 85 1.1 CALM 0 0 0 0 - - 0.0
26/08:30pm 6.4 5.2 4.6 88 0.8 CALM 0 0 0 0 - - 0.0
26/08:00pm 6.5 4.8 4.2 85 1.1 S 2 4 1 2 - - 0.0
26/07:30pm 6.1 4.5 4.6 90 0.7 S 2 6 1 3 - - 0.0
26/07:00pm 5.8 4.6 4.8 93 0.5 CALM 0 2 0 1 - - 0.0
26/06:30pm 6.0 4.5 4.8 92 0.6 S 2 6 1 3 - - 0.0
26/06:00pm 6.3 5.1 4.6 89 0.8 CALM 0 0 0 0 - - 0.0
26/05:30pm 6.4 5.2 4.7 89 0.8 CALM 0 2 0 1 - - 0.0
26/05:00pm 6.7 5.5 4.4 85 1.1 CALM 0 2 0 1 - - 0.0
26/04:30pm 7.1 5.9 4.8 85 1.1 CALM 0 0 0 0 - - 0.0
26/04:00pm 7.3 5.4 5.0 85 1.1 S 4 6 2 3 - - 0.0
26/03:30pm 7.5 5.4 4.1 79 1.6 S 4 6 2 3 - - 0.0
26/03:00pm 8.0 6.1 4.8 80 1.5 S 4 9 2 5 - - 0.0
26/02:30pm 8.8 6.8 4.4 74 2.1 S 4 7 2 4 - - 0.0
26/02:00pm 8.7 6.3 4.3 74 2.1 S 6 11 3 6 - - 0.0
26/01:30pm 9.5 7.2 4.7 72 2.3 S 6 9 3 5 - - 0.0
26/01:00pm 9.5 7.1 4.1 69 2.5 S 6 9 3 5 - - 0.0
26/12:30pm 9.2 7.4 3.2 66 2.7 S 2 6 1 3 - - 0.0
26/12:00pm 10.3 8.0 2.7 59 3.5 S 4 7 2 4 - - 0.0
26/11:30am 10.1 8.0 3.8 65 2.9 S 4 9 2 5 - - 0.0
26/11:00am 8.8 6.1 2.8 66 2.7 S 6 9 3 5 - - 0.0
26/10:30am 8.4 5.7 2.4 66 2.7 S 6 7 3 4 - - 0.0
26/10:00am 8.5 6.6 2.7 67 2.6 S 2 6 1 3 - - 0.0
26/09:30am 7.6 5.4 3.3 74 1.9 S 4 9 2 5 - - 0.0
26/09:00am 6.4 3.8 3.4 81 1.3 S 6 9 3 5 - - 0.0
26/08:30am 5.3 2.7 3.3 87 0.9 S 6 9 3 5 - - 0.0
26/08:00am 5.4 3.8 2.2 80 1.4 CALM 0 2 0 1 - - 0.0
26/07:30am 4.9 3.3 2.3 83 1.1 CALM 0 2 0 1 - - 0.0
26/07:00am 5.1 3.1 2.5 83 1.1 S 2 4 1 2 - - 0.0
26/06:30am 5.3 3.3 2.5 82 1.2 S 2 4 1 2 - - 0.0
26/06:00am 5.5 3.8 2.0 78 1.5 CALM 0 2 0 1 - - 0.0
26/05:30am 5.1 2.9 0.9 74 1.7 S 2 4 1 2 - - 0.0
26/05:00am 5.0 2.8 0.9 75 1.7 S 2 4 1 2 - - 0.0
26/04:30am 5.3 3.1 0.9 73 1.8 S 2 4 1 2 - - 0.0
26/04:00am 5.7 3.7 -0.4 65 2.5 CALM 0 0 0 0 - - 0.0
26/03:30am 5.6 3.6 -0.2 66 2.4 CALM 0 0 0 0 - - 0.0
26/03:00am 5.6 3.5 -0.7 64 2.5 CALM 0 2 0 1 - - 0.0
26/02:30am 5.9 3.4 -1.0 61 2.8 S 2 4 1 2 - - 0.0
26/02:00am 6.1 3.5 -2.0 56 3.2 S 2 4 1 2 - - 0.0
26/01:30am 6.3 3.6 -2.6 53 3.4 S 2 6 1 3 - - 0.0
26/01:00am 6.8 4.2 -5.2 42 4.4 CALM 0 0 0 0 - - 0.0
26/12:30am 6.6 4.2 -3.1 50 3.7 CALM 0 0 0 0 - - 0.0
26/12:00am 6.2 4.0 -1.9 56 3.2 CALM 0 2 0 1 - - 0.0
 
Date/Time
EST
Temp
°C
App
Temp
°C
Dew
Point
Rel
Hum
%
Delta-T
°C
Wind Press
QNH
hPa
Press
MSL
hPa
Rain
since 9 am
mm
Dir
 
Spd
km/h
Gust
km/h
Spd
kts
Gust
kts
25/11:30pm 6.5 4.2 -2.1 54 3.4 CALM 0 0 0 0 - - 0.0
25/11:00pm 6.6 4.4 -1.5 56 3.2 CALM 0 0 0 0 - - 0.0
25/10:30pm 7.0 4.7 -2.4 51 3.7 CALM 0 0 0 0 - - 0.0
25/10:00pm 7.0 4.8 -1.9 53 3.5 CALM 0 0 0 0 - - 0.0
25/09:30pm 6.7 4.2 1.8 71 2.1 S 4 4 2 2 - - 0.0
25/09:00pm 6.7 4.8 3.0 77 1.6 S 2 4 1 2 - - 0.0
25/08:30pm 6.4 4.9 3.0 79 1.5 CALM 0 0 0 0 - - 0.0
25/08:00pm 6.9 5.1 3.2 77 1.7 S 2 4 1 2 - - 0.0
25/07:30pm 7.1 4.7 2.4 72 2.1 S 4 7 2 4 - - 0.0
25/07:00pm 6.7 4.9 1.0 67 2.4 CALM 0 2 0 1 - - 0.0
25/06:30pm 6.3 4.4 2.6 77 1.6 S 2 2 1 1 - - 0.0
25/06:00pm 6.1 3.9 3.4 83 1.2 S 4 6 2 3 - - 0.0
25/05:30pm 6.5 5.2 4.2 85 1.1 CALM 0 0 0 0 - - 0.0
25/05:00pm 6.7 5.2 3.1 78 1.6 CALM 0 0 0 0 - - 0.0
25/04:30pm 7.6 5.8 3.5 75 1.9 S 2 4 1 2 - - 0.0
25/04:00pm 7.9 6.1 3.4 73 2.0 S 2 4 1 2 - - 0.0
25/03:30pm 8.8 7.5 4.0 72 2.2 CALM 0 0 0 0 - - 0.0
25/03:00pm 8.8 6.7 1.5 60 3.2 S 2 6 1 3 - - 0.0
25/02:30pm 8.4 6.2 3.1 69 2.4 S 4 6 2 3 - - 0.0
25/02:00pm 8.3 6.0 2.8 68 2.5 S 4 6 2 3 - - 0.0
25/01:30pm 9.2 6.8 1.9 60 3.2 S 4 9 2 5 - - 0.0
25/01:00pm 9.4 6.8 0.8 55 3.7 S 4 7 2 4 - - 0.0
25/12:30pm 9.3 6.3 0.5 54 3.8 S 6 11 3 6 - - 0.0
25/12:00pm 9.1 6.3 2.0 61 3.2 S 6 11 3 6 - - 0.0
25/11:30am 8.7 5.7 1.1 59 3.3 S 6 9 3 5 - - 0.0
25/11:00am 9.6 6.8 -0.3 50 4.2 S 4 7 2 4 - - 0.0
25/10:30am 9.0 6.1 -1.4 48 4.3 S 4 6 2 3 - - 0.0
25/10:00am 8.1 5.6 -3.7 43 4.5 CALM 0 2 0 1 - - 0.0
25/09:30am 7.8 5.0 -0.4 56 3.4 S 4 9 2 5 - - 0.0
25/09:00am 7.5 4.2 -1.2 54 3.5 S 6 9 3 5 - - 0.0
25/08:30am 7.1 4.5 -1.8 53 3.5 S 2 4 1 2 - - 0.0

Other Formats:

Comma delimited format used in spreadsheet applications
http://www.bom.gov.au/fwo/IDV60801/IDV60801.94878.axf

JavaScript Object Notation format (JSON) in row-major order
http://www.bom.gov.au/fwo/IDV60801/IDV60801.94878.json